»·PEaware :: UAL870 YSSY-KSFO

UAL870 :: YSSY-KSFO

FLIGHT INFORMATION

Flight Status: Arrived
Operator:
United Airlines
More flights by this operator :: More flights under this callsign
Pilot: Jac C. (16067)
Aircraft: Unknown
(B789)
More flights by this aircraft type
Origin: YSSY Kingsford Smith Intl
Australia
Destination: KSFO San Francisco Intl
United States
More flights between these airports :: More routes between these airports
Route: +DIPSO G595 GUTIV DUDEP NATLI A579 TEPEK/N0494F370 A579 CUFFY 00N170W 05N165W/N0487F390 10N160W 15N155W 20N150W 24N145W/N0487F410 27N140W 30N135W 33N130W CINNY PIRAT OSI
File this flight plan on PilotEdge
Remarks: PBN / A1B1C1D1L1O1S2 DOF / 180616 REG / N27965 EET / YBBB0000 NFFF0123 KZAK0459 00N170W0553 05N165W0647 10N160W0740 15N155W0830 20N150W0922 24N145W1010 27N140W1050 30N135W1128 33N130W1206 KZOA1236 OPR / UAL PER / D RALT / NFFN PKMJ PHTO KMRY RMK / TCAS SIMBRIEF
Altitude:
(Current/Filed)
35,000ft
Speed:
(Current/Filed)
491kts
Departed: 16-Jun-18 06:43 AM
Arrived: 16-Jun-18 07:45 AM
Distance/Time
Traveled:
6447nm/1:02
Distance/Time
To Go:
Arrived

Flight Plot

Page will automatically refresh every two minutes.

Flight plan parsing failed; only flown route is shown


Map Options




Map Legend


Flown Route
Filed Route
Departure Airport
Arrival Airport
Navaid (VOR, NDB)
Fix

Horizontal Profiles

Position Reports

Time Latitude Longitude Heading Altitude Ground
Speed
16-Jun-18 06:42 33.450357 -129.303089 47 43146ft 489kts
16-Jun-18 06:43 33.533295 -129.173378 47 43139ft 490kts
16-Jun-18 06:44 33.616019 -129.043492 47 43130ft 491kts
16-Jun-18 06:45 33.698836 -128.912947 47 43139ft 493kts
16-Jun-18 06:46 33.751267 -128.830043 47 43124ft 494kts
16-Jun-18 06:47 33.834288 -128.698435 47 43130ft 496kts
16-Jun-18 06:48 33.917533 -128.565945 48 43138ft 498kts
16-Jun-18 06:49 34.001233 -128.432258 48 43130ft 499kts
16-Jun-18 06:50 34.084829 -128.298329 48 43125ft 501kts
16-Jun-18 06:51 34.168433 -128.163737 48 43134ft 502kts
16-Jun-18 06:52 34.252290 -128.028308 48 43146ft 502kts
16-Jun-18 06:53 34.335836 -127.893011 48 43136ft 503kts
16-Jun-18 06:54 34.419278 -127.757208 48 43134ft 503kts
16-Jun-18 06:55 34.502894 -127.620517 48 43144ft 504kts
16-Jun-18 06:56 34.586279 -127.483765 48 43144ft 505kts
16-Jun-18 06:57 34.669744 -127.346459 48 43133ft 506kts
16-Jun-18 06:58 34.753427 -127.208117 49 43121ft 507kts
16-Jun-18 06:59 34.836949 -127.069671 49 43125ft 508kts
16-Jun-18 07:00 34.920371 -126.930682 49 43152ft 509kts
16-Jun-18 07:01 35.004102 -126.790625 49 43143ft 510kts
16-Jun-18 07:02 35.087640 -126.650526 49 43150ft 511kts
16-Jun-18 07:03 35.171072 -126.509873 50 43157ft 512kts
16-Jun-18 07:04 35.254653 -126.368345 50 43150ft 512kts
16-Jun-18 07:05 35.337922 -126.226878 50 43142ft 513kts
16-Jun-18 07:06 35.421179 -126.084986 50 43139ft 513kts
16-Jun-18 07:07 35.504501 -125.942203 50 43149ft 514kts
16-Jun-18 07:08 35.587590 -125.799268 50 43144ft 515kts
16-Jun-18 07:09 35.670654 -125.655822 50 43135ft 516kts
16-Jun-18 07:10 35.753879 -125.511520 50 43140ft 516kts
16-Jun-18 07:11 35.836762 -125.367312 51 43115ft 516kts
16-Jun-18 07:12 35.919446 -125.222605 51 43122ft 517kts
16-Jun-18 07:13 36.002426 -125.076894 51 43127ft 518kts
16-Jun-18 07:14 36.085130 -124.931142 51 43119ft 519kts
16-Jun-18 07:15 36.167696 -124.784878 52 43115ft 519kts
16-Jun-18 07:16 36.252087 -124.639129 50 42759ft 520kts
16-Jun-18 07:17 36.337473 -124.491907 51 40739ft 533kts
16-Jun-18 07:18 36.424733 -124.340809 50 38736ft 541kts
16-Jun-18 07:19 36.512715 -124.187771 50 36702ft 548kts
16-Jun-18 07:20 36.601512 -124.032590 51 34594ft 553kts
16-Jun-18 07:21 36.690807 -123.875796 52 32574ft 554kts
16-Jun-18 07:22 36.779642 -123.719168 52 30478ft 552kts
16-Jun-18 07:23 36.867214 -123.563993 53 28412ft 534kts
16-Jun-18 07:24 36.949594 -123.417428 53 26512ft 496kts
16-Jun-18 07:25 37.028225 -123.276852 53 24641ft 488kts
16-Jun-18 07:26 37.104490 -123.139966 54 23712ft 480kts
16-Jun-18 07:27 37.181399 -123.001390 54 20890ft 479kts
16-Jun-18 07:28 37.249515 -122.869277 65 20146ft 441kts
16-Jun-18 07:29 37.290150 -122.724950 76 20133ft 438kts
16-Jun-18 07:30 37.323505 -122.577868 81 20127ft 437kts
16-Jun-18 07:31 37.329442 -122.425087 93 17720ft 434kts
16-Jun-18 07:32 37.330630 -122.277828 93 14721ft 410kts
16-Jun-18 07:33 37.331227 -122.138191 93 11709ft 387kts
16-Jun-18 07:34 37.329782 -122.007968 92 8970ft 358kts
16-Jun-18 07:35 37.360935 -121.907271 26 7606ft 312kts
16-Jun-18 07:36 37.427192 -121.941114 293 6829ft 258kts
16-Jun-18 07:37 37.453621 -122.011613 293 6322ft 204kts
16-Jun-18 07:38 37.479724 -122.081013 293 5686ft 230kts
16-Jun-18 07:39 37.516060 -122.147574 305 3825ft 227kts
16-Jun-18 07:40 37.548846 -122.208391 297 2642ft 179kts
16-Jun-18 07:41 37.569163 -122.257112 295 1817ft 147kts
16-Jun-18 07:42 37.588626 -122.303265 294 1029ft 147kts
16-Jun-18 07:43 37.607061 -122.347227 294 274ft 143kts
16-Jun-18 07:44 37.620336 -122.378924 297 26ft 50kts
16-Jun-18 07:45 37.621777 -122.387151 306 26ft 14kts
16-Jun-18 07:46 37.621557 -122.391524 206 26ft 15kts
16-Jun-18 07:47 37.619337 -122.391427 116 26ft 12kts
16-Jun-18 07:48 37.618341 -122.391056 206 26ft 0kts
16-Jun-18 07:49 37.618340 -122.391056 206 26ft 0kts
16-Jun-18 07:50 37.618340 -122.391056 206 26ft 0kts

Navigation Log

Ident Type
Flight plan parsing failed, navigation log unavailable